Time,TemperatureF,DewpointF,PressureIn,WindDirection,WindDirectionDegrees,WindSpeedMPH,WindSpeedGustMPH,Humidity,HourlyPrecipIn,Conditions,Clouds,dailyrainin,SoftwareType,DateUTC
2013-01-27 00:00:00,14.2,-12.2,29.44,North,6,0.0,0.0,29,0.00,,,0.00,VWS V14.01,2013-01-27 05:00:00,
2013-01-27 00:01:00,14.2,-12.2,29.44,North,7,0.0,0.0,29,0.00,,,0.00,VWS V14.01,2013-01-27 05:01:00,
2013-01-27 00:03:00,14.2,-12.2,29.44,North,7,0.0,0.0,29,0.00,,,0.00,VWS V14.01,2013-01-27 05:03:00,
2013-01-27 00:09:00,14.2,-12.2,29.44,North,7,0.0,0.0,29,0.00,,,0.00,VWS V14.01,2013-01-27 05:09:00,
2013-01-27 00:11:00,14.2,-12.2,29.44,North,7,0.0,0.0,29,0.00,,,0.00,VWS V14.01,2013-01-27 05:11:00,
2013-01-27 00:16:00,14.0,-12.4,29.44,North,7,0.0,0.0,29,0.00,,,0.00,VWS V14.01,2013-01-27 05:16:00,
2013-01-27 00:22:00,13.8,-12.6,29.44,North,6,0.0,0.0,29,0.00,,,0.00,VWS V14.01,2013-01-27 05:22:00,
2013-01-27 00:27:00,13.6,-12.7,29.44,North,7,0.0,0.0,29,0.00,,,0.00,VWS V14.01,2013-01-27 05:27:00,
2013-01-27 00:33:00,13.6,-12.7,29.44,North,7,0.0,0.0,29,0.00,,,0.00,VWS V14.01,2013-01-27 05:33:00,
2013-01-27 00:39:00,13.6,-12.7,29.44,North,7,0.0,0.0,29,0.00,,,0.00,VWS V14.01,2013-01-27 05:39:00,
2013-01-27 00:44:00,14.0,-9.2,29.44,North,7,0.0,0.0,34,0.00,,,0.00,VWS V14.01,2013-01-27 05:44:00,
2013-01-27 00:50:00,14.2,-9.0,29.44,North,7,0.0,0.0,34,0.00,,,0.00,VWS V14.01,2013-01-27 05:50:00,
2013-01-27 00:55:00,14.2,-9.0,29.44,North,7,0.0,0.0,34,0.00,,,0.00,VWS V14.01,2013-01-27 05:55:00,
2013-01-27 01:00:00,14.2,-9.0,29.44,North,7,0.0,0.0,34,0.00,,,0.00,VWS V14.01,2013-01-27 06:00:00,
2013-01-27 01:05:00,14.0,-9.2,29.44,North,7,0.0,0.0,34,0.00,,,0.00,VWS V14.01,2013-01-27 06:05:00,
2013-01-27 01:10:00,14.0,-9.2,29.44,North,6,0.0,0.0,34,0.00,,,0.00,VWS V14.01,2013-01-27 06:10:00,
2013-01-27 01:16:00,14.0,-9.2,29.47,North,7,0.0,0.0,34,0.00,,,0.00,VWS V14.01,2013-01-27 06:16:00,
2013-01-27 01:22:00,14.0,-9.2,29.47,North,7,0.0,0.0,34,0.00,,,0.00,VWS V14.01,2013-01-27 06:22:00,
2013-01-27 01:27:00,13.6,-9.5,29.47,North,7,0.0,0.0,34,0.00,,,0.00,VWS V14.01,2013-01-27 06:27:00,
2013-01-27 01:33:00,13.5,-9.7,29.47,North,7,0.0,0.0,34,0.00,,,0.00,VWS V14.01,2013-01-27 06:33:00,
2013-01-27 01:39:00,13.5,-9.7,29.47,North,7,0.0,0.0,34,0.00,,,0.00,VWS V14.01,2013-01-27 06:39:00,
2013-01-27 01:44:00,13.5,-9.7,29.47,North,7,0.0,0.0,34,0.00,,,0.00,VWS V14.01,2013-01-27 06:44:00,
2013-01-27 01:50:00,13.5,-9.7,29.47,North,6,0.0,0.0,34,0.00,,,0.00,VWS V14.01,2013-01-27 06:50:00,
2013-01-27 01:55:00,13.6,-9.5,29.47,North,7,0.0,0.0,34,0.00,,,0.00,VWS V14.01,2013-01-27 06:55:00,
2013-01-27 02:01:00,13.6,-9.5,29.47,North,7,0.0,0.0,34,0.00,,,0.00,VWS V14.01,2013-01-27 07:01:00,
2013-01-27 02:06:00,13.6,-9.5,29.47,North,7,0.0,0.0,34,0.00,,,0.00,VWS V14.01,2013-01-27 07:06:00,
2013-01-27 02:13:00,13.6,-9.5,29.47,North,7,0.0,0.0,34,0.00,,,0.00,VWS V14.01,2013-01-27 07:13:00,
2013-01-27 02:19:00,13.8,-9.4,29.47,North,7,0.0,0.0,34,0.00,,,0.00,VWS V14.01,2013-01-27 07:19:00,
2013-01-27 02:24:00,13.6,-9.5,29.47,North,6,0.0,0.0,34,0.00,,,0.00,VWS V14.01,2013-01-27 07:24:00,
2013-01-27 02:30:00,13.8,-9.4,29.47,North,7,0.0,0.0,34,0.00,,,0.00,VWS V14.01,2013-01-27 07:30:00,
2013-01-27 02:35:00,13.8,-9.4,29.47,South,191,0.0,0.0,34,0.00,,,0.00,VWS V14.01,2013-01-27 07:35:00,
2013-01-27 02:41:00,13.8,-9.4,29.47,South,191,0.0,0.0,34,0.00,,,0.00,VWS V14.01,2013-01-27 07:41:00,
2013-01-27 02:46:00,13.6,-9.5,29.47,South,191,0.0,0.0,34,0.00,,,0.00,VWS V14.01,2013-01-27 07:46:00,
2013-01-27 02:52:00,13.5,-9.7,29.47,South,191,0.0,0.0,34,0.00,,,0.00,VWS V14.01,2013-01-27 07:52:00,
2013-01-27 02:57:00,13.5,-9.7,29.47,South,191,0.0,0.0,34,0.00,,,0.00,VWS V14.01,2013-01-27 07:57:00,
2013-01-27 03:03:00,13.5,-9.7,29.47,South,191,0.0,0.0,34,0.00,,,0.00,VWS V14.01,2013-01-27 08:03:00,
2013-01-27 03:09:00,13.5,-9.7,29.47,South,191,0.0,0.0,34,0.00,,,0.00,VWS V14.01,2013-01-27 08:09:00,
2013-01-27 03:14:00,13.5,-9.7,29.47,South,191,0.0,0.0,34,0.00,,,0.00,VWS V14.01,2013-01-27 08:14:00,
2013-01-27 03:20:00,13.5,-9.7,29.47,South,191,0.0,0.0,34,0.00,,,0.00,VWS V14.01,2013-01-27 08:20:00,
2013-01-27 03:25:00,13.5,-9.7,29.47,South,191,0.0,0.0,34,0.00,,,0.00,VWS V14.01,2013-01-27 08:25:00,
2013-01-27 03:31:00,13.5,-9.7,29.47,South,178,0.0,0.0,34,0.00,,,0.00,VWS V14.01,2013-01-27 08:31:00,
2013-01-27 03:36:00,13.5,-9.7,29.47,South,178,0.0,0.0,34,0.00,,,0.00,VWS V14.01,2013-01-27 08:36:00,
2013-01-27 03:42:00,13.5,-9.7,29.47,SSW,208,0.0,0.0,34,0.00,,,0.00,VWS V14.01,2013-01-27 08:42:00,
2013-01-27 03:47:00,13.6,-9.5,29.50,WNW,291,0.0,0.0,34,0.00,,,0.00,VWS V14.01,2013-01-27 08:47:00,
2013-01-27 03:53:00,13.6,-9.5,29.50,WNW,291,0.0,0.0,34,0.00,,,0.00,VWS V14.01,2013-01-27 08:53:00,
2013-01-27 03:59:00,13.6,-9.5,29.50,WNW,291,0.0,0.0,34,0.00,,,0.00,VWS V14.01,2013-01-27 08:59:00,
2013-01-27 04:04:00,13.6,-9.5,29.50,WNW,291,0.0,0.0,34,0.00,,,0.00,VWS V14.01,2013-01-27 09:04:00,
2013-01-27 04:10:00,13.5,-9.7,29.50,WNW,291,0.0,0.0,34,0.00,,,0.00,VWS V14.01,2013-01-27 09:10:00,
2013-01-27 04:15:00,13.5,-9.7,29.50,WNW,291,0.0,0.0,34,0.00,,,0.00,VWS V14.01,2013-01-27 09:15:00,
2013-01-27 04:21:00,13.6,-9.5,29.50,WNW,291,0.0,0.0,34,0.00,,,0.00,VWS V14.01,2013-01-27 09:21:00,
2013-01-27 04:26:00,13.6,-9.5,29.50,WNW,291,0.0,0.0,34,0.00,,,0.00,VWS V14.01,2013-01-27 09:26:00,
2013-01-27 04:32:00,13.5,-9.7,29.50,WNW,291,0.0,0.0,34,0.00,,,0.00,VWS V14.01,2013-01-27 09:32:00,
2013-01-27 04:37:00,13.5,-9.7,29.50,WNW,291,0.0,0.0,34,0.00,,,0.00,VWS V14.01,2013-01-27 09:37:00,
2013-01-27 04:43:00,13.5,-9.7,29.50,WNW,291,0.0,0.0,34,0.00,,,0.00,VWS V14.01,2013-01-27 09:43:00,
2013-01-27 04:49:00,13.6,-9.5,29.50,WNW,291,0.0,0.0,34,0.00,,,0.00,VWS V14.01,2013-01-27 09:49:00,
2013-01-27 04:54:00,13.6,-9.5,29.50,WNW,291,0.0,0.0,34,0.00,,,0.00,VWS V14.01,2013-01-27 09:54:00,
2013-01-27 05:00:00,13.6,-9.5,29.50,WNW,291,0.0,0.0,34,0.00,,,0.00,VWS V14.01,2013-01-27 10:00:00,
2013-01-27 05:05:00,13.6,-9.5,29.50,WNW,291,0.0,0.0,34,0.00,,,0.00,VWS V14.01,2013-01-27 10:05:00,
2013-01-27 05:11:00,13.5,-9.7,29.50,WNW,291,0.0,0.0,34,0.00,,,0.00,VWS V14.01,2013-01-27 10:11:00,
2013-01-27 05:16:00,13.3,-9.8,29.50,WNW,291,0.0,0.0,34,0.00,,,0.00,VWS V14.01,2013-01-27 10:16:00,
2013-01-27 05:22:00,13.3,-9.8,29.50,WNW,291,0.0,0.0,34,0.00,,,0.00,VWS V14.01,2013-01-27 10:22:00,
2013-01-27 05:27:00,13.1,-10.0,29.50,WNW,291,0.0,0.0,34,0.00,,,0.00,VWS V14.01,2013-01-27 10:27:00,
2013-01-27 05:33:00,13.1,-10.0,29.50,WNW,291,0.0,0.0,34,0.00,,,0.00,VWS V14.01,2013-01-27 10:33:00,
2013-01-27 05:39:00,13.1,-10.0,29.50,WNW,291,0.0,0.0,34,0.00,,,0.00,VWS V14.01,2013-01-27 10:39:00,
2013-01-27 05:44:00,13.1,-10.0,29.50,WNW,291,0.0,0.0,34,0.00,,,0.00,VWS V14.01,2013-01-27 10:44:00,
2013-01-27 05:50:00,13.3,-9.8,29.50,WNW,291,0.0,0.0,34,0.00,,,0.00,VWS V14.01,2013-01-27 10:50:00,
2013-01-27 05:55:00,13.3,-9.8,29.50,WNW,291,0.0,0.0,34,0.00,,,0.00,VWS V14.01,2013-01-27 10:55:00,
2013-01-27 06:01:00,13.3,-9.8,29.50,WNW,291,0.0,0.0,34,0.00,,,0.00,VWS V14.01,2013-01-27 11:01:00,
2013-01-27 06:06:00,13.3,-9.8,29.50,WNW,291,0.0,0.0,34,0.00,,,0.00,VWS V14.01,2013-01-27 11:06:00,
2013-01-27 06:12:00,13.3,-9.8,29.50,WNW,291,0.0,0.0,34,0.00,,,0.00,VWS V14.01,2013-01-27 11:12:00,
2013-01-27 06:17:00,13.1,-10.0,29.53,WNW,291,0.0,0.0,34,0.00,,,0.00,VWS V14.01,2013-01-27 11:17:00,
2013-01-27 06:23:00,13.1,-10.0,29.53,WNW,291,0.0,0.0,34,0.00,,,0.00,VWS V14.01,2013-01-27 11:23:00,
2013-01-27 06:29:00,13.1,-10.0,29.53,WNW,291,0.0,0.0,34,0.00,,,0.00,VWS V14.01,2013-01-27 11:29:00,
2013-01-27 06:34:00,12.9,-10.1,29.53,WNW,291,0.0,0.0,34,0.00,,,0.00,VWS V14.01,2013-01-27 11:34:00,
2013-01-27 06:40:00,12.7,-10.3,29.53,WNW,291,0.0,0.0,34,0.00,,,0.00,VWS V14.01,2013-01-27 11:40:00,
2013-01-27 06:45:00,12.7,-10.3,29.53,WNW,291,0.0,0.0,34,0.00,,,0.00,VWS V14.01,2013-01-27 11:45:00,
2013-01-27 06:51:00,13.1,-10.0,29.53,WNW,291,0.0,0.0,34,0.00,,,0.00,VWS V14.01,2013-01-27 11:51:00,
2013-01-27 06:56:00,13.1,-10.0,29.53,WNW,291,0.0,0.0,34,0.00,,,0.00,VWS V14.01,2013-01-27 11:56:00,
2013-01-27 07:02:00,13.1,-10.0,29.53,WNW,291,0.0,0.0,34,0.00,,,0.00,VWS V14.01,2013-01-27 12:02:00,
2013-01-27 07:07:00,13.1,-10.0,29.53,WNW,291,0.0,0.0,34,0.00,,,0.00,VWS V14.01,2013-01-27 12:07:00,
2013-01-27 07:13:00,13.1,-10.0,29.53,WNW,291,0.0,0.0,34,0.00,,,0.00,VWS V14.01,2013-01-27 12:13:00,
2013-01-27 07:19:00,13.1,-10.0,29.53,WNW,291,0.0,0.0,34,0.00,,,0.00,VWS V14.01,2013-01-27 12:19:00,
2013-01-27 07:24:00,13.1,-10.0,29.53,WNW,291,0.0,0.0,34,0.00,,,0.00,VWS V14.01,2013-01-27 12:24:00,
2013-01-27 07:30:00,13.3,-9.8,29.53,WNW,291,0.0,0.0,34,0.00,,,0.00,VWS V14.01,2013-01-27 12:30:00,
2013-01-27 07:35:00,13.6,-9.5,29.53,WNW,291,0.0,0.0,34,0.00,,,0.00,VWS V14.01,2013-01-27 12:35:00,
2013-01-27 07:41:00,13.6,-9.5,29.53,WNW,291,0.0,0.0,34,0.00,,,0.00,VWS V14.01,2013-01-27 12:41:00,
2013-01-27 07:46:00,14.0,-3.4,29.56,WNW,291,0.0,0.0,45,0.00,,,0.00,VWS V14.01,2013-01-27 12:46:00,
2013-01-27 07:52:00,14.2,-3.2,29.56,NW,304,0.0,0.0,45,0.00,,,0.00,VWS V14.01,2013-01-27 12:52:00,
2013-01-27 07:57:00,14.7,-2.8,29.56,NW,306,0.0,0.0,45,0.00,,,0.00,VWS V14.01,2013-01-27 12:57:00,
2013-01-27 08:03:00,15.3,-2.7,29.56,North,7,4.0,4.0,44,0.00,,,0.00,VWS V14.01,2013-01-27 13:03:00,
2013-01-27 08:09:00,15.8,-2.7,29.56,North,7,3.1,3.6,43,0.00,,,0.00,VWS V14.01,2013-01-27 13:09:00,
2013-01-27 08:14:00,16.0,-3.5,29.56,North,6,0.0,0.0,41,0.00,,,0.00,VWS V14.01,2013-01-27 13:14:00,
2013-01-27 08:20:00,16.5,-4.1,29.56,North,6,0.0,3.1,39,0.00,,,0.00,VWS V14.01,2013-01-27 13:20:00,
2013-01-27 08:25:00,17.1,-4.2,29.56,North,6,2.7,4.5,38,0.00,,,0.00,VWS V14.01,2013-01-27 13:25:00,
2013-01-27 08:31:00,17.4,-4.4,29.56,North,6,0.0,4.9,37,0.00,,,0.00,VWS V14.01,2013-01-27 13:31:00,
2013-01-27 08:36:00,18.0,-4.5,29.56,North,7,4.5,4.5,36,0.00,,,0.00,VWS V14.01,2013-01-27 13:36:00,
2013-01-27 08:42:00,18.3,-4.2,29.56,North,6,3.1,4.0,36,0.00,,,0.00,VWS V14.01,2013-01-27 13:42:00,
2013-01-27 08:47:00,18.9,-4.3,29.56,North,6,3.1,4.0,35,0.00,,,0.00,VWS V14.01,2013-01-27 13:47:00,
2013-01-27 08:52:00,19.2,-4.5,29.56,North,6,4.5,4.9,34,0.00,,,0.00,VWS V14.01,2013-01-27 13:52:00,
2013-01-27 08:59:00,19.2,-4.5,29.56,NNW,345,4.5,6.9,34,0.00,,,0.00,VWS V14.01,2013-01-27 13:59:00,
2013-01-27 09:04:00,19.6,-4.2,29.56,North,0,3.6,5.8,34,0.00,,,0.00,VWS V14.01,2013-01-27 14:04:00,
2013-01-27 09:10:00,19.9,-3.9,29.56,North,2,3.6,4.9,34,0.00,,,0.00,VWS V14.01,2013-01-27 14:10:00,
2013-01-27 09:15:00,20.1,-4.4,29.56,North,2,2.7,3.6,33,0.00,,,0.00,VWS V14.01,2013-01-27 14:15:00,
2013-01-27 09:21:00,20.5,-4.0,29.56,NNW,345,0.0,0.0,33,0.00,,,0.00,VWS V14.01,2013-01-27 14:21:00,
2013-01-27 09:26:00,20.7,-3.9,29.56,North,0,3.6,4.0,33,0.00,,,0.00,VWS V14.01,2013-01-27 14:26:00,
2013-01-27 09:32:00,21.2,-3.4,29.59,North,0,0.0,3.6,33,0.00,,,0.00,VWS V14.01,2013-01-27 14:32:00,
2013-01-27 09:37:00,21.4,-3.9,29.59,North,7,0.0,0.0,32,0.00,,,0.00,VWS V14.01,2013-01-27 14:37:00,
2013-01-27 09:43:00,21.9,-3.4,29.59,North,6,0.0,4.0,32,0.00,,,0.00,VWS V14.01,2013-01-27 14:43:00,
2013-01-27 09:49:00,22.1,-4.6,29.59,NNE,14,0.0,3.6,30,0.00,,,0.00,VWS V14.01,2013-01-27 14:49:00,
2013-01-27 09:54:00,22.5,-4.3,29.59,NNE,32,0.0,0.0,30,0.00,,,0.00,VWS V14.01,2013-01-27 14:54:00,
2013-01-27 10:00:00,23.0,-3.8,29.59,North,0,0.0,0.0,30,0.00,,,0.00,VWS V14.01,2013-01-27 15:00:00,
2013-01-27 10:05:00,23.2,-5.8,29.59,NNE,14,0.0,0.0,27,0.00,,,0.00,VWS V14.01,2013-01-27 15:05:00,
2013-01-27 10:11:00,23.2,-5.8,29.59,North,351,0.0,6.7,27,0.00,,,0.00,VWS V14.01,2013-01-27 15:11:00,
2013-01-27 10:16:00,23.7,-5.4,29.59,North,9,0.0,0.0,27,0.00,,,0.00,VWS V14.01,2013-01-27 15:16:00,
2013-01-27 10:22:00,23.4,-7.3,29.59,NNW,345,5.8,7.4,25,0.00,,,0.00,VWS V14.01,2013-01-27 15:22:00,
2013-01-27 10:27:00,23.5,-7.1,29.59,North,4,5.4,5.8,25,0.00,,,0.00,VWS V14.01,2013-01-27 15:27:00,
2013-01-27 10:33:00,23.7,-6.9,29.59,NNW,337,3.6,4.9,25,0.00,,,0.00,VWS V14.01,2013-01-27 15:33:00,
2013-01-27 10:39:00,23.7,-6.9,29.59,North,1,4.0,6.3,25,0.00,,,0.00,VWS V14.01,2013-01-27 15:39:00,
2013-01-27 10:44:00,23.9,-6.8,29.62,North,5,2.7,7.8,25,0.00,,,0.00,VWS V14.01,2013-01-27 15:44:00,
2013-01-27 10:50:00,24.1,-9.2,29.62,North,1,4.5,7.4,22,0.00,,,0.00,VWS V14.01,2013-01-27 15:50:00,
2013-01-27 10:55:00,24.4,-8.9,29.62,North,351,3.1,4.9,22,0.00,,,0.00,VWS V14.01,2013-01-27 15:55:00,
2013-01-27 11:01:00,24.6,-8.8,29.62,North,2,4.5,4.5,22,0.00,,,0.00,VWS V14.01,2013-01-27 16:01:00,
2013-01-27 11:06:00,24.8,-8.6,29.62,North,4,5.8,5.8,22,0.00,,,0.00,VWS V14.01,2013-01-27 16:06:00,
2013-01-27 11:12:00,25.0,-8.5,29.62,North,11,0.0,4.0,22,0.00,,,0.00,VWS V14.01,2013-01-27 16:12:00,
2013-01-27 11:17:00,25.2,-8.3,29.62,North,0,4.5,4.5,22,0.00,,,0.00,VWS V14.01,2013-01-27 16:17:00,
2013-01-27 11:23:00,25.3,-8.2,29.62,NNE,16,3.6,5.8,22,0.00,,,0.00,VWS V14.01,2013-01-27 16:23:00,
2013-01-27 11:29:00,25.3,-8.2,29.62,NNW,346,4.0,5.4,22,0.00,,,0.00,VWS V14.01,2013-01-27 16:29:00,
2013-01-27 11:34:00,25.9,-8.7,29.62,North,0,3.1,5.4,21,0.00,,,0.00,VWS V14.01,2013-01-27 16:34:00,
2013-01-27 11:40:00,26.1,-8.5,29.62,NNE,14,0.0,3.6,21,0.00,,,0.00,VWS V14.01,2013-01-27 16:40:00,
2013-01-27 11:45:00,26.4,-8.2,29.62,NNE,21,4.0,4.9,21,0.00,,,0.00,VWS V14.01,2013-01-27 16:45:00,
2013-01-27 11:51:00,26.8,-7.9,29.62,North,0,3.6,3.6,21,0.00,,,0.00,VWS V14.01,2013-01-27 16:51:00,
2013-01-27 11:56:00,27.1,-7.6,29.62,North,5,3.6,4.9,21,0.00,,,0.00,VWS V14.01,2013-01-27 16:56:00,
2013-01-27 12:02:00,27.3,-7.4,29.59,North,1,0.0,3.6,21,0.00,,,0.00,VWS V14.01,2013-01-27 17:02:00,
2013-01-27 12:07:00,27.7,-7.2,29.59,North,1,0.0,0.0,21,0.00,,,0.00,VWS V14.01,2013-01-27 17:07:00,
2013-01-27 12:13:00,27.7,-7.2,29.59,North,0,3.1,5.4,21,0.00,,,0.00,VWS V14.01,2013-01-27 17:13:00,
2013-01-27 12:19:00,27.3,-7.4,29.59,North,0,4.5,6.7,21,0.00,,,0.00,VWS V14.01,2013-01-27 17:19:00,
2013-01-27 12:24:00,27.1,-7.6,29.59,North,0,4.5,6.9,21,0.00,,,0.00,VWS V14.01,2013-01-27 17:24:00,
2013-01-27 12:30:00,27.9,-7.0,29.59,North,7,3.1,4.5,21,0.00,,,0.00,VWS V14.01,2013-01-27 17:30:00,
2013-01-27 12:35:00,27.9,-7.0,29.59,North,0,4.5,4.9,21,0.00,,,0.00,VWS V14.01,2013-01-27 17:35:00,
2013-01-27 12:41:00,28.0,-6.8,29.59,North,0,2.7,5.8,21,0.00,,,0.00,VWS V14.01,2013-01-27 17:41:00,
2013-01-27 12:46:00,28.2,-6.7,29.56,North,351,2.7,5.4,21,0.00,,,0.00,VWS V14.01,2013-01-27 17:46:00,
2013-01-27 12:52:00,28.4,-6.5,29.56,ENE,59,4.9,4.9,21,0.00,,,0.00,VWS V14.01,2013-01-27 17:52:00,
2013-01-27 12:57:00,28.2,-6.7,29.56,North,3,2.7,4.9,21,0.00,,,0.00,VWS V14.01,2013-01-27 17:57:00,
2013-01-27 13:03:00,28.4,-6.5,29.56,North,0,0.0,0.0,21,0.00,,,0.00,VWS V14.01,2013-01-27 18:03:00,
2013-01-27 13:09:00,28.6,-6.4,29.56,North,351,2.7,4.9,21,0.00,,,0.00,VWS V14.01,2013-01-27 18:09:00,
2013-01-27 13:14:00,28.8,-6.2,29.56,NNW,345,0.0,0.0,21,0.00,,,0.00,VWS V14.01,2013-01-27 18:14:00,
2013-01-27 13:19:00,28.8,-6.2,29.56,North,0,0.0,0.0,21,0.00,,,0.00,VWS V14.01,2013-01-27 18:19:00,
2013-01-27 13:25:00,28.4,-6.5,29.56,North,351,4.9,4.9,21,0.00,,,0.00,VWS V14.01,2013-01-27 18:25:00,
2013-01-27 13:31:00,28.4,-6.5,29.56,North,0,4.0,5.4,21,0.00,,,0.00,VWS V14.01,2013-01-27 18:31:00,
2013-01-27 13:36:00,28.2,-6.7,29.56,NNW,330,0.0,5.8,21,0.00,,,0.00,VWS V14.01,2013-01-27 18:36:00,
2013-01-27 13:42:00,28.0,-6.8,29.56,North,0,3.6,5.4,21,0.00,,,0.00,VWS V14.01,2013-01-27 18:42:00,
2013-01-27 13:47:00,28.0,-6.8,29.56,North,0,3.1,5.4,21,0.00,,,0.00,VWS V14.01,2013-01-27 18:47:00,
2013-01-27 13:53:00,28.0,-6.8,29.56,North,351,3.6,4.5,21,0.00,,,0.00,VWS V14.01,2013-01-27 18:53:00,
2013-01-27 13:58:00,28.2,-6.7,29.56,North,11,3.1,3.6,21,0.00,,,0.00,VWS V14.01,2013-01-27 18:58:00,
2013-01-27 14:04:00,28.4,-6.5,29.56,NNW,335,4.5,4.5,21,0.00,,,0.00,VWS V14.01,2013-01-27 19:04:00,
2013-01-27 14:10:00,28.4,-6.5,29.56,North,351,0.0,2.7,21,0.00,,,0.00,VWS V14.01,2013-01-27 19:10:00,
2013-01-27 14:15:00,28.4,-6.5,29.56,North,11,0.0,0.0,21,0.00,,,0.00,VWS V14.01,2013-01-27 19:15:00,
2013-01-27 14:21:00,28.6,-6.4,29.56,North,2,0.0,4.0,21,0.00,,,0.00,VWS V14.01,2013-01-27 19:21:00,
2013-01-27 14:26:00,28.4,-6.5,29.56,North,5,0.0,0.0,21,0.00,,,0.00,VWS V14.01,2013-01-27 19:26:00,
2013-01-27 14:32:00,28.4,-6.5,29.56,NNE,12,3.1,4.9,21,0.00,,,0.00,VWS V14.01,2013-01-27 19:32:00,
2013-01-27 14:37:00,28.6,-6.4,29.56,NNW,345,2.7,4.5,21,0.00,,,0.00,VWS V14.01,2013-01-27 19:37:00,
2013-01-27 14:43:00,28.6,-6.4,29.56,NNW,327,0.0,2.7,21,0.00,,,0.00,VWS V14.01,2013-01-27 19:43:00,
2013-01-27 14:49:00,28.4,-6.5,29.56,NNW,345,3.1,4.5,21,0.00,,,0.00,VWS V14.01,2013-01-27 19:49:00,
2013-01-27 14:54:00,28.6,-6.4,29.56,NNW,347,0.0,3.6,21,0.00,,,0.00,VWS V14.01,2013-01-27 19:54:00,
2013-01-27 15:00:00,28.4,-6.5,29.56,NNW,347,0.0,0.0,21,0.00,,,0.00,VWS V14.01,2013-01-27 20:00:00,
2013-01-27 15:05:00,28.4,-6.5,29.56,North,351,0.0,0.0,21,0.00,,,0.00,VWS V14.01,2013-01-27 20:05:00,
2013-01-27 15:11:00,28.2,-6.7,29.56,NNW,347,0.0,0.0,21,0.00,,,0.00,VWS V14.01,2013-01-27 20:11:00,
2013-01-27 15:16:00,28.0,-6.8,29.56,NW,319,0.0,0.0,21,0.00,,,0.00,VWS V14.01,2013-01-27 20:16:00,
2013-01-27 15:22:00,28.0,-6.8,29.56,NW,319,0.0,0.0,21,0.00,,,0.00,VWS V14.01,2013-01-27 20:22:00,
2013-01-27 15:27:00,28.0,-6.8,29.56,NW,319,0.0,0.0,21,0.00,,,0.00,VWS V14.01,2013-01-27 20:27:00,
2013-01-27 15:33:00,28.0,-6.8,29.56,NW,319,0.0,0.0,21,0.00,,,0.00,VWS V14.01,2013-01-27 20:33:00,
2013-01-27 15:39:00,27.9,-7.0,29.56,NW,319,0.0,0.0,21,0.00,,,0.00,VWS V14.01,2013-01-27 20:39:00,
2013-01-27 15:44:00,27.9,-7.0,29.56,NW,319,0.0,0.0,21,0.00,,,0.00,VWS V14.01,2013-01-27 20:44:00,
2013-01-27 15:50:00,27.9,-7.0,29.56,NW,319,0.0,0.0,21,0.00,,,0.00,VWS V14.01,2013-01-27 20:50:00,
2013-01-27 15:55:00,27.7,-7.2,29.56,NW,319,0.0,0.0,21,0.00,,,0.00,VWS V14.01,2013-01-27 20:55:00,
2013-01-27 16:01:00,27.7,-7.2,29.56,NW,319,0.0,0.0,21,0.00,,,0.00,VWS V14.01,2013-01-27 21:01:00,
2013-01-27 16:06:00,27.5,-7.3,29.56,NW,319,0.0,0.0,21,0.00,,,0.00,VWS V14.01,2013-01-27 21:06:00,
2013-01-27 16:12:00,27.5,-7.3,29.56,NW,319,0.0,0.0,21,0.00,,,0.00,VWS V14.01,2013-01-27 21:12:00,
2013-01-27 16:17:00,27.3,-7.4,29.56,NW,319,0.0,0.0,21,0.00,,,0.00,VWS V14.01,2013-01-27 21:17:00,
2013-01-27 16:23:00,27.1,-7.6,29.56,NW,319,0.0,0.0,21,0.00,,,0.00,VWS V14.01,2013-01-27 21:23:00,
2013-01-27 16:29:00,27.1,-7.6,29.56,NW,319,0.0,0.0,21,0.00,,,0.00,VWS V14.01,2013-01-27 21:29:00,
2013-01-27 16:34:00,27.0,-7.8,29.59,NW,319,0.0,0.0,21,0.00,,,0.00,VWS V14.01,2013-01-27 21:34:00,
2013-01-27 16:40:00,26.8,-7.9,29.59,NW,319,0.0,0.0,21,0.00,,,0.00,VWS V14.01,2013-01-27 21:40:00,
2013-01-27 16:45:00,26.8,-7.9,29.59,NW,319,0.0,0.0,21,0.00,,,0.00,VWS V14.01,2013-01-27 21:45:00,
2013-01-27 16:51:00,26.8,-7.9,29.59,NW,319,0.0,0.0,21,0.00,,,0.00,VWS V14.01,2013-01-27 21:51:00,
2013-01-27 16:56:00,26.6,-8.1,29.59,NW,319,0.0,0.0,21,0.00,,,0.00,VWS V14.01,2013-01-27 21:56:00,
2013-01-27 17:02:00,26.8,-7.9,29.59,NW,319,0.0,0.0,21,0.00,,,0.00,VWS V14.01,2013-01-27 22:02:00,
2013-01-27 17:07:00,26.8,-7.9,29.59,NW,319,0.0,0.0,21,0.00,,,0.00,VWS V14.01,2013-01-27 22:07:00,
2013-01-27 17:13:00,26.8,-7.9,29.59,NW,319,0.0,0.0,21,0.00,,,0.00,VWS V14.01,2013-01-27 22:13:00,
2013-01-27 17:19:00,26.8,-7.9,29.59,NW,319,0.0,0.0,21,0.00,,,0.00,VWS V14.01,2013-01-27 22:19:00,
2013-01-27 17:24:00,26.8,-7.9,29.59,NW,319,0.0,0.0,21,0.00,,,0.00,VWS V14.01,2013-01-27 22:24:00,
2013-01-27 17:30:00,26.6,-8.1,29.59,NW,319,0.0,0.0,21,0.00,,,0.00,VWS V14.01,2013-01-27 22:30:00,
2013-01-27 17:35:00,26.4,-8.2,29.59,NW,319,0.0,0.0,21,0.00,,,0.00,VWS V14.01,2013-01-27 22:35:00,
2013-01-27 17:41:00,26.2,-8.4,29.59,NW,319,0.0,0.0,21,0.00,,,0.00,VWS V14.01,2013-01-27 22:41:00,
2013-01-27 17:46:00,26.2,-8.4,29.59,NW,319,0.0,0.0,21,0.00,,,0.00,VWS V14.01,2013-01-27 22:46:00,
2013-01-27 17:52:00,26.2,-8.4,29.59,NW,319,0.0,0.0,21,0.00,,,0.00,VWS V14.01,2013-01-27 22:52:00,
2013-01-27 17:57:00,26.2,-8.4,29.59,NW,319,0.0,0.0,21,0.00,,,0.00,VWS V14.01,2013-01-27 22:57:00,
2013-01-27 18:03:00,26.2,-8.4,29.59,NW,319,0.0,0.0,21,0.00,,,0.00,VWS V14.01,2013-01-27 23:03:00,
2013-01-27 18:09:00,26.2,-8.4,29.59,NW,319,0.0,0.0,21,0.00,,,0.00,VWS V14.01,2013-01-27 23:09:00,
2013-01-27 18:14:00,26.1,-8.5,29.59,NW,319,0.0,0.0,21,0.00,,,0.00,VWS V14.01,2013-01-27 23:14:00,
2013-01-27 18:20:00,25.9,-8.7,29.59,NW,319,0.0,0.0,21,0.00,,,0.00,VWS V14.01,2013-01-27 23:20:00,
2013-01-27 18:25:00,25.7,-8.8,29.59,NW,319,0.0,0.0,21,0.00,,,0.00,VWS V14.01,2013-01-27 23:25:00,
2013-01-27 18:31:00,25.7,-7.9,29.59,NW,319,0.0,0.0,22,0.00,,,0.00,VWS V14.01,2013-01-27 23:31:00,
2013-01-27 18:36:00,25.5,-8.0,29.59,NW,319,0.0,0.0,22,0.00,,,0.00,VWS V14.01,2013-01-27 23:36:00,
2013-01-27 18:42:00,25.7,-7.9,29.59,NW,319,0.0,0.0,22,0.00,,,0.00,VWS V14.01,2013-01-27 23:42:00,
2013-01-27 18:47:00,25.7,-7.9,29.59,NW,319,0.0,0.0,22,0.00,,,0.00,VWS V14.01,2013-01-27 23:47:00,
2013-01-27 18:53:00,25.7,-7.9,29.59,NW,319,0.0,0.0,22,0.00,,,0.00,VWS V14.01,2013-01-27 23:53:00,
2013-01-27 18:58:00,25.3,-8.2,29.59,NW,319,0.0,0.0,22,0.00,,,0.00,VWS V14.01,2013-01-27 23:58:00,
2013-01-27 19:03:00,25.2,-8.3,29.62,NW,319,0.0,0.0,22,0.00,,,0.00,VWS V14.01,2013-01-28 00:03:00,
2013-01-27 19:08:00,25.2,-8.3,29.62,NW,319,0.0,0.0,22,0.00,,,0.00,VWS V14.01,2013-01-28 00:08:00,
2013-01-27 19:14:00,25.3,-8.2,29.62,NW,319,0.0,0.0,22,0.00,,,0.00,VWS V14.01,2013-01-28 00:14:00,
2013-01-27 19:20:00,25.3,-8.2,29.62,NW,319,0.0,0.0,22,0.00,,,0.00,VWS V14.01,2013-01-28 00:20:00,
2013-01-27 19:25:00,25.3,-8.2,29.62,NW,319,0.0,0.0,22,0.00,,,0.00,VWS V14.01,2013-01-28 00:25:00,
2013-01-27 19:31:00,25.3,-8.2,29.59,NW,319,0.0,0.0,22,0.00,,,0.00,VWS V14.01,2013-01-28 00:31:00,
2013-01-27 19:36:00,25.2,-8.3,29.59,NW,319,0.0,0.0,22,0.00,,,0.00,VWS V14.01,2013-01-28 00:36:00,
2013-01-27 19:42:00,25.2,-8.3,29.59,NW,319,0.0,0.0,22,0.00,,,0.00,VWS V14.01,2013-01-28 00:42:00,
2013-01-27 19:47:00,25.2,-8.3,29.59,NW,319,0.0,0.0,22,0.00,,,0.00,VWS V14.01,2013-01-28 00:47:00,
2013-01-27 19:53:00,25.2,-8.3,29.59,NW,319,0.0,0.0,22,0.00,,,0.00,VWS V14.01,2013-01-28 00:53:00,
2013-01-27 19:58:00,25.0,-8.5,29.59,NW,319,0.0,0.0,22,0.00,,,0.00,VWS V14.01,2013-01-28 00:58:00,
2013-01-27 20:04:00,25.0,-8.5,29.59,NW,319,0.0,0.0,22,0.00,,,0.00,VWS V14.01,2013-01-28 01:04:00,
2013-01-27 20:10:00,25.0,-8.5,29.59,NW,319,0.0,0.0,22,0.00,,,0.00,VWS V14.01,2013-01-28 01:10:00,
2013-01-27 20:15:00,24.8,-8.6,29.59,NW,319,0.0,0.0,22,0.00,,,0.00,VWS V14.01,2013-01-28 01:15:00,
2013-01-27 20:21:00,24.6,-8.8,29.59,NW,319,0.0,0.0,22,0.00,,,0.00,VWS V14.01,2013-01-28 01:21:00,
2013-01-27 20:26:00,24.6,-8.8,29.59,NW,319,0.0,0.0,22,0.00,,,0.00,VWS V14.01,2013-01-28 01:26:00,
2013-01-27 20:32:00,24.6,-8.8,29.59,NW,319,0.0,0.0,22,0.00,,,0.00,VWS V14.01,2013-01-28 01:32:00,
2013-01-27 20:37:00,24.6,-8.8,29.59,NW,319,0.0,0.0,22,0.00,,,0.00,VWS V14.01,2013-01-28 01:37:00,
2013-01-27 20:43:00,24.6,-8.8,29.59,NW,319,0.0,0.0,22,0.00,,,0.00,VWS V14.01,2013-01-28 01:43:00,
2013-01-27 20:48:00,24.6,-8.8,29.59,NW,319,0.0,0.0,22,0.00,,,0.00,VWS V14.01,2013-01-28 01:48:00,
2013-01-27 20:54:00,24.4,-8.9,29.59,NW,319,0.0,0.0,22,0.00,,,0.00,VWS V14.01,2013-01-28 01:54:00,
2013-01-27 21:00:00,24.3,-9.1,29.59,NW,319,0.0,0.0,22,0.00,,,0.00,VWS V14.01,2013-01-28 02:00:00,
2013-01-27 21:05:00,24.3,-9.1,29.59,NW,319,0.0,0.0,22,0.00,,,0.00,VWS V14.01,2013-01-28 02:05:00,
2013-01-27 21:11:00,24.1,-9.2,29.59,NW,319,0.0,0.0,22,0.00,,,0.00,VWS V14.01,2013-01-28 02:11:00,
2013-01-27 21:16:00,23.9,-9.4,29.59,NW,319,0.0,0.0,22,0.00,,,0.00,VWS V14.01,2013-01-28 02:16:00,
2013-01-27 21:22:00,23.7,-9.6,29.59,NW,319,0.0,0.0,22,0.00,,,0.00,VWS V14.01,2013-01-28 02:22:00,
2013-01-27 21:27:00,23.7,-9.6,29.59,NW,319,0.0,0.0,22,0.00,,,0.00,VWS V14.01,2013-01-28 02:27:00,
2013-01-27 21:33:00,23.7,-9.6,29.62,NW,319,0.0,0.0,22,0.00,,,0.00,VWS V14.01,2013-01-28 02:33:00,
2013-01-27 21:38:00,23.7,-9.6,29.62,NW,319,0.0,0.0,22,0.00,,,0.00,VWS V14.01,2013-01-28 02:38:00,
2013-01-27 21:44:00,23.7,-9.6,29.62,NW,319,0.0,0.0,22,0.00,,,0.00,VWS V14.01,2013-01-28 02:44:00,
2013-01-27 21:50:00,23.5,-9.7,29.62,NW,319,0.0,0.0,22,0.00,,,0.00,VWS V14.01,2013-01-28 02:50:00,
2013-01-27 21:55:00,23.4,-9.9,29.62,NW,319,0.0,0.0,22,0.00,,,0.00,VWS V14.01,2013-01-28 02:55:00,
2013-01-27 22:01:00,23.0,-10.2,29.59,NW,319,0.0,0.0,22,0.00,,,0.00,VWS V14.01,2013-01-28 03:01:00,
2013-01-27 22:06:00,23.0,-10.2,29.59,NW,319,0.0,0.0,22,0.00,,,0.00,VWS V14.01,2013-01-28 03:06:00,
2013-01-27 22:12:00,23.2,-10.0,29.59,NW,319,0.0,0.0,22,0.00,,,0.00,VWS V14.01,2013-01-28 03:12:00,
2013-01-27 22:17:00,23.0,-10.2,29.59,NW,319,0.0,0.0,22,0.00,,,0.00,VWS V14.01,2013-01-28 03:17:00,
2013-01-27 22:23:00,23.2,-10.0,29.59,NW,319,0.0,0.0,22,0.00,,,0.00,VWS V14.01,2013-01-28 03:23:00,
2013-01-27 22:28:00,23.2,-10.0,29.59,NW,319,0.0,0.0,22,0.00,,,0.00,VWS V14.01,2013-01-28 03:28:00,
2013-01-27 22:34:00,23.0,-10.2,29.59,NW,319,0.0,0.0,22,0.00,,,0.00,VWS V14.01,2013-01-28 03:34:00,
2013-01-27 22:40:00,23.0,-10.2,29.59,NW,319,0.0,0.0,22,0.00,,,0.00,VWS V14.01,2013-01-28 03:40:00,
2013-01-27 22:45:00,23.0,-10.2,29.59,NW,319,0.0,0.0,22,0.00,,,0.00,VWS V14.01,2013-01-28 03:45:00,
2013-01-27 22:51:00,23.2,-10.0,29.59,NW,319,0.0,0.0,22,0.00,,,0.00,VWS V14.01,2013-01-28 03:51:00,
2013-01-27 22:56:00,23.4,-9.9,29.59,NW,319,0.0,0.0,22,0.00,,,0.00,VWS V14.01,2013-01-28 03:56:00,
2013-01-27 23:02:00,23.0,-10.2,29.59,NW,319,0.0,0.0,22,0.00,,,0.00,VWS V14.01,2013-01-28 04:02:00,
2013-01-27 23:07:00,23.0,-10.2,29.59,NW,319,0.0,0.0,22,0.00,,,0.00,VWS V14.01,2013-01-28 04:07:00,
2013-01-27 23:13:00,23.0,-10.2,29.59,NW,319,0.0,0.0,22,0.00,,,0.00,VWS V14.01,2013-01-28 04:13:00,
2013-01-27 23:18:00,23.0,-10.2,29.59,NW,319,0.0,0.0,22,0.00,,,0.00,VWS V14.01,2013-01-28 04:18:00,
2013-01-27 23:24:00,23.0,-10.2,29.59,NW,319,0.0,0.0,22,0.00,,,0.00,VWS V14.01,2013-01-28 04:24:00,
2013-01-27 23:30:00,22.8,-10.3,29.59,NW,319,0.0,0.0,22,0.00,,,0.00,VWS V14.01,2013-01-28 04:30:00,
2013-01-27 23:35:00,23.0,-10.2,29.59,NW,319,0.0,0.0,22,0.00,,,0.00,VWS V14.01,2013-01-28 04:35:00,
2013-01-27 23:41:00,22.8,-10.3,29.59,NW,319,0.0,0.0,22,0.00,,,0.00,VWS V14.01,2013-01-28 04:41:00,
2013-01-27 23:46:00,22.8,-10.3,29.59,NW,319,0.0,0.0,22,0.00,,,0.00,VWS V14.01,2013-01-28 04:46:00,
2013-01-27 23:52:00,22.8,-10.3,29.59,NW,319,0.0,0.0,22,0.00,,,0.00,VWS V14.01,2013-01-28 04:52:00,
2013-01-27 23:57:00,22.8,-10.3,29.59,NW,319,0.0,0.0,22,0.00,,,0.00,VWS V14.01,2013-01-28 04:57:00,